D/T METAR WX W/DIR W/SPE G/SPE TEMP DEWP
31/05/20 06:50 EGXT 310550Z AUTO 03009KT 9999 NCD 12/10 Q1023 NNE (30°) 10.4mph 12°C 10°C
31/05/20 05:50 EGXT 310450Z AUTO 03009KT 9999 NCD 10/08 Q1023 NNE (30°) 10.4mph 10°C 8°C
31/05/20 04:50 EGXT 310350Z AUTO 02009KT 9999 NCD 09/08 Q1023 NNE (20°) 10.4mph 9°C 8°C
31/05/20 03:50 EGXT 310250Z AUTO 02008KT 9999 NCD 10/08 Q1023 NNE (20°) 9.2mph 10°C 8°C
31/05/20 02:50 EGXT 310150Z AUTO 02008KT 9999 NCD 09/07 Q1023 NNE (20°) 9.2mph 9°C 7°C
31/05/20 01:50 EGXT 310050Z AUTO 02007KT 9999 NCD 10/08 Q1024 NNE (20°) 8.1mph 10°C 8°C
31/05/20 00:50 EGXT 302350Z AUTO 03006KT 9999 NCD 11/08 Q1024 NNE (30°) 6.9mph 11°C 8°C
30/05/20 23:50 EGXT 302250Z AUTO 05006KT 9999 NCD 11/08 Q1024 NE (50°) 6.9mph 11°C 8°C
30/05/20 22:50 EGXT 302150Z AUTO 06008KT 9999 NCD 13/07 Q1023 ENE (60°) 9.2mph 13°C 7°C
30/05/20 21:50 EGXT 302050Z AUTO 06008KT 9999 NCD 14/07 Q1023 ENE (60°) 9.2mph 14°C 7°C
30/05/20 20:50 EGXT 301950Z AUTO 06011KT 9999 NCD 17/09 Q1022 ENE (60°) 12.7mph 17°C 9°C
30/05/20 19:50 EGXT 301850Z AUTO 05013KT 9999 NCD 19/09 Q1022 NE (50°) 15.0mph 19°C 9°C
30/05/20 18:50 EGXT 301750Z AUTO 07011KT 9999 NCD 21/09 Q1022 ENE (70°) 12.7mph 21°C 9°C
30/05/20 17:50 EGXT 301650Z AUTO 07013KT 9999 NCD 22/05 Q1022 ENE (70°) 15.0mph 22°C 5°C
30/05/20 16:50 EGXT 301550Z AUTO 09012KT 9999 NCD 24/05 Q1022 E (90°) 13.8mph 24°C 5°C
30/05/20 15:50 EGXT 301450Z AUTO 04014KT 9999 NCD 23/10 Q1022 NE (40°) 16.1mph 23°C 10°C
30/05/20 14:50 EGXT 301350Z AUTO 05012KT 9999 FEW050/// 22/10 Q1023 NE (50°) 13.8mph 22°C 10°C
30/05/20 13:50 EGXT 301250Z AUTO 07010G20KT 9999 FEW050/// 22/11 Q1023 ENE (70°) 11.5mph 23.0mph 22°C 11°C
30/05/20 12:50 EGXT 301150Z AUTO 11009KT 9999 NCD 22/09 Q1023 ESE (110°) 10.4mph 22°C 9°C
30/05/20 11:50 EGXT 301050Z AUTO 06010KT 9999 NCD 21/10 Q1024 ENE (60°) 11.5mph 21°C 10°C
30/05/20 10:50 EGXT 300950Z AUTO 06010KT 9999 NCD 19/10 Q1024 ENE (60°) 11.5mph 19°C 10°C
30/05/20 09:50 EGXT 300850Z AUTO 05009KT 9999 NCD 18/10 Q1025 NE (50°) 10.4mph 18°C 10°C
30/05/20 08:50 EGXT 300750Z AUTO 06009KT 9999 NCD 16/10 Q1025 ENE (60°) 10.4mph 16°C 10°C
30/05/20 07:50 EGXT 300650Z AUTO 06009KT 9999 NCD 13/10 Q1025 ENE (60°) 10.4mph 13°C 10°C
30/05/20 06:50 EGXT 300550Z AUTO 03008KT 9999 NCD 11/09 Q1025 NNE (30°) 9.2mph 11°C 9°C
30/05/20 05:50 EGXT 300450Z AUTO 03007KT 9999 NCD 09/08 Q1025 NNE (30°) 8.1mph 9°C 8°C
30/05/20 04:50 EGXT 300350Z AUTO 03006KT 9999 NCD 08/07 Q1025 NNE (30°) 6.9mph 8°C 7°C
30/05/20 03:50 EGXT 300250Z AUTO 36005KT 9999 NCD 07/05 Q1025 N (360°) 5.8mph 7°C 5°C
30/05/20 02:50 EGXT 300150Z AUTO 36003KT 9999 NCD 08/05 Q1025 N (360°) 3.5mph 8°C 5°C
30/05/20 01:50 EGXT 300050Z AUTO 06006KT 9999 NCD 08/05 Q1026 ENE (60°) 6.9mph 8°C 5°C
30/05/20 00:50 EGXT 292350Z AUTO 07007KT 9999 NCD 09/04 Q1026 ENE (70°) 8.1mph 9°C 4°C
29/05/20 23:50 EGXT 292250Z AUTO 07007KT 9999 NCD 11/04 Q1026 ENE (70°) 8.1mph 11°C 4°C
29/05/20 22:50 EGXT 292150Z AUTO 08007KT 9999 NCD 13/03 Q1026 E (80°) 8.1mph 13°C 3°C
29/05/20 21:50 EGXT 292050Z AUTO 08008KT 9999 NCD 15/04 Q1025 E (80°) 9.2mph 15°C 4°C
29/05/20 20:50 EGXT 291950Z AUTO 09009KT 9999 NCD 17/04 Q1025 E (90°) 10.4mph 17°C 4°C
29/05/20 19:50 EGXT 291850Z AUTO 09011KT 9999 NCD 20/04 Q1025 E (90°) 12.7mph 20°C 4°C
29/05/20 18:50 EGXT 291750Z AUTO 08009KT 9999 NCD 21/04 Q1025 E (80°) 10.4mph 21°C 4°C
29/05/20 17:50 EGXT 291650Z AUTO 06010G20KT 9999 NCD 22/05 Q1025 ENE (60°) 11.5mph 23.0mph 22°C 5°C
29/05/20 16:50 EGXT 291550Z AUTO 04009KT 9999 NCD 22/07 Q1025 NE (40°) 10.4mph 22°C 7°C
29/05/20 15:50 EGXT 291450Z AUTO 08009KT 9999 NCD 22/07 Q1026 E (80°) 10.4mph 22°C 7°C
29/05/20 14:50 EGXT 291350Z AUTO 08009KT 9999 NCD 23/05 Q1026 E (80°) 10.4mph 23°C 5°C
29/05/20 14:22 EGXT 291322Z 09009KT CAVOK 22/04 Q1027 RMK BLU E (90°) 10.4mph 22°C 4°C
29/05/20 13:50 EGXT 291250Z 09009G19KT CAVOK 22/03 Q1027 RMK BLU E (90°) 10.4mph 21.9mph 22°C 3°C
29/05/20 13:20 EGXT 291220Z 11008KT CAVOK 21/03 Q1028 RMK BLU ESE (110°) 9.2mph 21°C 3°C
29/05/20 12:21 EGXT 291121Z 10008KT CAVOK 20/03 Q1028 RMK BLU E (100°) 9.2mph 20°C 3°C
29/05/20 11:50 EGXT 291050Z 10008KT CAVOK 20/04 Q1029 RMK BLU E (100°) 9.2mph 20°C 4°C
29/05/20 10:50 EGXT 290950Z 10006KT CAVOK 19/04 Q1029 RMK BLU E (100°) 6.9mph 19°C 4°C
29/05/20 09:50 EGXT 290850Z 09006KT CAVOK 17/05 Q1029 RMK BLU E (90°) 6.9mph 17°C 5°C
29/05/20 08:50 EGXT 290750Z 12005KT CAVOK 15/05 Q1030 RMK BLU ESE (120°) 5.8mph 15°C 5°C
29/05/20 07:50 EGXT 290650Z 10005KT CAVOK 13/07 Q1030 RMK BLU E (100°) 5.8mph 13°C 7°C
29/05/20 07:07 EGXT 290607Z 06005KT CAVOK 11/06 Q1030 RMK BLU ENE (60°) 5.8mph 11°C 6°C
29/05/20 05:50 EGXT 290450Z AUTO 05004KT 9999 NCD 09/05 Q1030 NE (50°) 4.6mph 9°C 5°C
29/05/20 04:50 EGXT 290350Z AUTO 05003KT 9999 NCD 09/04 Q1030 NE (50°) 3.5mph 9°C 4°C
29/05/20 03:50 EGXT 290250Z AUTO 10003KT 9999 NCD 10/04 Q1030 E (100°) 3.5mph 10°C 4°C
29/05/20 02:50 EGXT 290150Z AUTO 10003KT 9999 NCD 10/04 Q1030 E (100°) 3.5mph 10°C 4°C
29/05/20 01:50 EGXT 290050Z AUTO 13003KT 9999 NCD 10/05 Q1030 SE (130°) 3.5mph 10°C 5°C
29/05/20 00:50 EGXT 282350Z AUTO 16002KT 9999 NCD 11/05 Q1031 SSE (160°) 2.3mph 11°C 5°C
28/05/20 23:50 EGXT 282250Z AUTO 15003KT 9999 NCD 12/05 Q1031 SSE (150°) 3.5mph 12°C 5°C
28/05/20 22:50 EGXT 282150Z AUTO 13006KT 9999 NCD 13/05 Q1031 SE (130°) 6.9mph 13°C 5°C
28/05/20 21:50 EGXT 282050Z AUTO 14006KT 9999 NCD 15/05 Q1031 SE (140°) 6.9mph 15°C 5°C
28/05/20 20:50 EGXT 281950Z AUTO 13006KT 9999 NCD 17/06 Q1031 SE (130°) 6.9mph 17°C 6°C
28/05/20 19:50 EGXT 281850Z AUTO 12005KT 9999 NCD 19/05 Q1030 ESE (120°) 5.8mph 19°C 5°C
28/05/20 18:50 EGXT 281750Z AUTO 14006KT 9999 NCD 21/05 Q1031 SE (140°) 6.9mph 21°C 5°C
28/05/20 17:50 EGXT 281650Z AUTO 13005KT 9999 NCD 21/04 Q1031 SE (130°) 5.8mph 21°C 4°C
28/05/20 16:50 EGXT 281550Z AUTO 13007KT 9999 NCD 21/04 Q1031 SE (130°) 8.1mph 21°C 4°C
28/05/20 15:50 EGXT 281450Z 16005KT CAVOK 22/05 Q1032 BLU SSE (160°) 5.8mph 22°C 5°C
28/05/20 14:50 EGXT 281350Z 16006KT CAVOK 21/04 Q1033 BLU SSE (160°) 6.9mph 21°C 4°C
28/05/20 13:50 EGXT 281250Z 14006KT CAVOK 20/04 Q1033 BLU SE (140°) 6.9mph 20°C 4°C
28/05/20 12:50 EGXT 281150Z 15007KT CAVOK 19/06 Q1034 BLU SSE (150°) 8.1mph 19°C 6°C
28/05/20 11:50 EGXT 281050Z 13007KT CAVOK 18/05 Q1034 BLU SE (130°) 8.1mph 18°C 5°C
28/05/20 10:50 EGXT 280950Z 14006KT CAVOK 17/07 Q1035 BLU SE (140°) 6.9mph 17°C 7°C
28/05/20 09:50 EGXT 280850Z 14007KT CAVOK 15/08 Q1035 BLU SE (140°) 8.1mph 15°C 8°C
28/05/20 09:22 EGXT 280822Z 13007KT CAVOK 15/09 Q1035 BLU SE (130°) 8.1mph 15°C 9°C
28/05/20 08:50 EGXT 280750Z 12006KT 9999 FEW010 14/09 Q1036 BLU ESE (120°) 6.9mph 14°C 9°C
28/05/20 08:20 EGXT 280720Z 15005KT 9999 FEW009 13/10 Q1036 BLU SSE (150°) 5.8mph 13°C 10°C
28/05/20 08:01 EGXT 280701Z 12004KT 9999 FEW005 12/10 Q1036 BLU ESE (120°) 4.6mph 12°C 10°C
28/05/20 06:50 EGXT 280550Z 13003KT 8000 BR OVC003 10/09 Q1036 YLO2 BR SE (130°) 3.5mph 10°C 9°C
28/05/20 05:50 EGXT 280450Z AUTO 12003KT 3600 BR OVC002/// 09/08 Q1036 BR ESE (120°) 3.5mph 9°C 8°C
28/05/20 04:50 EGXT 280350Z AUTO 10005KT 1600 BKN001/// 09/08 Q1036 E (100°) 5.8mph 9°C 8°C
28/05/20 03:50 EGXT 280250Z AUTO 06005KT 9999 NCD 08/07 Q1036 ENE (60°) 5.8mph 8°C 7°C
28/05/20 02:50 EGXT 280150Z AUTO 05005KT 9999 NCD 09/08 Q1036 NE (50°) 5.8mph 9°C 8°C
28/05/20 01:50 EGXT 280050Z AUTO 03005KT 9999 NCD 10/09 Q1036 NNE (30°) 5.8mph 10°C 9°C
28/05/20 00:50 EGXT 272350Z AUTO 03006KT 9999 NCD 10/09 Q1036 NNE (30°) 6.9mph 10°C 9°C
27/05/20 23:50 EGXT 272250Z AUTO 03007KT 9999 NCD 11/09 Q1036 NNE (30°) 8.1mph 11°C 9°C
27/05/20 22:50 EGXT 272150Z AUTO 02007KT 9999 NCD 12/09 Q1036 NNE (20°) 8.1mph 12°C 9°C
27/05/20 21:50 EGXT 272050Z AUTO 05009KT 9999 NCD 13/10 Q1036 NE (50°) 10.4mph 13°C 10°C
27/05/20 20:50 EGXT 271950Z AUTO 04010KT 9999 NCD 14/10 Q1036 NE (40°) 11.5mph 14°C 10°C
27/05/20 19:50 EGXT 271850Z AUTO 04012KT 9999 NCD 16/10 Q1035 NE (40°) 13.8mph 16°C 10°C
27/05/20 18:50 EGXT 271750Z AUTO 05014KT 9999 FEW110/// 17/10 Q1035 NE (50°) 16.1mph 17°C 10°C
27/05/20 17:50 EGXT 271650Z AUTO 06014KT 9999 FEW120/// 20/10 Q1034 ENE (60°) 16.1mph 20°C 10°C
27/05/20 16:50 EGXT 271550Z AUTO 04013KT 9999 FEW050/// 22/11 Q1034 NE (40°) 15.0mph 22°C 11°C
27/05/20 15:50 EGXT 271450Z AUTO 36009KT 9999 SCT050/// 23/09 Q1034 N (360°) 10.4mph 23°C 9°C
27/05/20 14:50 EGXT 271350Z AUTO 30005KT 9999 FEW049/// 23/08 Q1034 WNW (300°) 5.8mph 23°C 8°C
27/05/20 14:23 EGXT 271323Z 27006KT 9999 BKN043 22/09 Q1035 RMK BLU W (270°) 6.9mph 22°C 9°C
27/05/20 13:50 EGXT 271250Z 29006KT 9999 BKN043 21/09 Q1035 RMK BLU WNW (290°) 6.9mph 21°C 9°C
27/05/20 13:26 EGXT 271226Z 27006KT 9999 BKN043 21/10 Q1035 RMK BLU W (270°) 6.9mph 21°C 10°C